WetterOnline ( https://www.wetteronline.de )

Wetter aktuell Bonn

Aktuelles Wetter: Königswinter-Heiderhof (147m)

6-stündlich | Neueste Meldungen
Ortszeit Temperatur Wetter
Mo, 03.10. 8:00 8.8° C wolkig
Mo, 03.10. 2:00 10.5° C leicht bewölkt
So, 02.10. 20:00 13.2° C leicht bewölkt
So, 02.10. 14:00 14.8° C bedeckt
So, 02.10. 8:00 12.8° C leichter Regen
So, 02.10. 2:00 12.4° C bewölkt
Sa, 01.10. 20:00 13.5° C wolkig
Sa, 01.10. 14:00 16.9° C wolkig
Ortszeit Temperatur Wetter
Mo, 03.10. 10:00 11.2° C leicht bewölkt
Mo, 03.10. 9:50 11.2° C leicht bewölkt
Mo, 03.10. 9:40 11.3° C fast wolkenlos
Mo, 03.10. 9:30 10.8° C leicht bewölkt
Mo, 03.10. 9:20 10.8° C leicht bewölkt
Mo, 03.10. 9:10 10.6° C wolkig
Mo, 03.10. 9:00 10.0° C leicht bewölkt
Mo, 03.10. 8:30 9.0° C wolkig
Mo, 03.10. 8:00 8.8° C wolkig
Mo, 03.10. 7:30 8.6° C wolkig
Mo, 03.10. 7:00 8.9° C bewölkt
Ortszeit Relative Feuchte Sichtweite
Mo, 03.10. 8:00 98% 20 km
Mo, 03.10. 2:00 90% 29 km
So, 02.10. 20:00 87% 40 km
So, 02.10. 14:00 82% 65 km
So, 02.10. 8:00 92% 19 km
So, 02.10. 2:00 84% 35 km
Sa, 01.10. 20:00 77% 45 km
Sa, 01.10. 14:00 67% 45 km
Ortszeit Relative Feuchte Sichtweite
Mo, 03.10. 10:00 86% 24 km
Mo, 03.10. 9:50 86% -
Mo, 03.10. 9:40 87% -
Mo, 03.10. 9:30 89% 28 km
Mo, 03.10. 9:20 89% -
Mo, 03.10. 9:10 90% -
Mo, 03.10. 9:00 93% 20 km
Mo, 03.10. 8:30 97% 15 km
Mo, 03.10. 8:00 98% 20 km
Mo, 03.10. 7:30 95% 20 km
Mo, 03.10. 7:00 97% 21 km
Ortszeit Niederschlagsmenge Niederschlagsart
Mo, 03.10. 8:00 0.0 l/m2 in 12 Std. -
Mo, 03.10. 2:00 0.0 l/m2 in 6 Std. -
So, 02.10. 20:00 0.7 l/m2 in 12 Std. -
So, 02.10. 14:00 0.7 l/m2 in 6 Std. Regen
So, 02.10. 8:00 0.4 l/m2 in 12 Std. Regen
So, 02.10. 2:00 0.0 l/m2 in 6 Std. -
Sa, 01.10. 20:00 2 l/m2 in 12 Std. Regen
Sa, 01.10. 14:00 2 l/m2 in 6 Std. Regen
Ortszeit Niederschlagsmenge Niederschlagsart
Mo, 03.10. 10:00 0.0 l/m2 in 1 Std. -
Mo, 03.10. 9:50 keine Meldung -
Mo, 03.10. 9:40 keine Meldung -
Mo, 03.10. 9:30 0.0 l/m2 in 1 Std. -
Mo, 03.10. 9:20 keine Meldung -
Mo, 03.10. 9:10 keine Meldung -
Mo, 03.10. 9:00 0.0 l/m2 in 1 Std. -
Mo, 03.10. 8:30 0.0 l/m2 in 1 Std. -
Mo, 03.10. 8:00 0.0 l/m2 in 1 Std. -
Mo, 03.10. 7:30 0.0 l/m2 in 1 Std. -
Mo, 03.10. 7:00 0.0 l/m2 in 1 Std. -
Ortszeit Stärke Spitze Richtung
km/h Bft. km/h Grad Sektor
Mo, 03.10. 8:00 6 1 13 240° SW
Mo, 03.10. 2:00 7 2 18 270° W
So, 02.10. 20:00 11 2 29 260° W
So, 02.10. 14:00 14 3 36 270° W
So, 02.10. 8:00 14 3 25 210° SW
So, 02.10. 2:00 14 3 25 210° SW
Sa, 01.10. 20:00 11 2 50 250° W
Sa, 01.10. 14:00 35 5 54 260° W
Ortszeit Stärke Spitze Richtung
km/h Bft. km/h Grad Sektor
Mo, 03.10. 10:00 7 2 13 280° W
Mo, 03.10. 9:50 7 2 - 280° W
Mo, 03.10. 9:40 7 2 - 270° W
Mo, 03.10. 9:30 7 2 11 250° W
Mo, 03.10. 9:20 7 2 - 250° W
Mo, 03.10. 9:10 7 2 - 240° SW
Mo, 03.10. 9:00 4 1 11 230° SW
Mo, 03.10. 8:30 7 2 11 240° SW
Mo, 03.10. 8:00 6 1 7 240° SW
Mo, 03.10. 7:30 4 1 4 250° W
Mo, 03.10. 7:00 4 1 7 270° W
Ortszeit Untergrenze Bedeckung Gattung
total tief tief mittel hoch
Mo, 03.10. 8:00 600 m 5/8 5/8 - - -
Mo, 03.10. 2:00 870 m 4/8 4/8 - - -
So, 02.10. 20:00 1050 m 2/8 2/8 - - -
So, 02.10. 14:00 510 m 8/8 8/8 - - -
So, 02.10. 8:00 630 m 8/8 8/8 - - -
So, 02.10. 2:00 2100 m 7/8 7/8 - - -
Sa, 01.10. 20:00 1500 m 6/8 6/8 - - -
Sa, 01.10. 14:00 930 m 6/8 6/8 - - -
Ortszeit Bedeckungsgrad in Achtel und Wolkenuntergrenze
Mo, 03.10. 10:00 1(540m)
Mo, 03.10. 9:50 1(540m) 2(1020m)
Mo, 03.10. 9:40 1
Mo, 03.10. 9:30 3(10500m)
Mo, 03.10. 9:20 3(10500m)
Mo, 03.10. 9:10 5
Mo, 03.10. 9:00 1(990m) 4(10500m)
Mo, 03.10. 8:30 6(960m)
Mo, 03.10. 8:00 1(600m) 3(810m) 5(960m)
Mo, 03.10. 7:30 2(570m) 6(1080m)
Mo, 03.10. 7:00 2(600m) 3(810m) 7(1110m)
Ortszeit Luftdruck NN (hPa) Tendenz (hPa in 3 Std.)
Mo, 03.10. 8:00 1028 + 0,9
Mo, 03.10. 2:00 1026 + 1,6
So, 02.10. 20:00 1022 + 2,0
So, 02.10. 14:00 1019 + 1,0
So, 02.10. 8:00 1017 + 0,4
So, 02.10. 2:00 1016 + 1,5
Sa, 01.10. 20:00 1012 + 3,0
Sa, 01.10. 14:00 1007 + 1,1
Ortszeit Luftdruck NN (hPa) Tendenz (hPa in 3 Std.)
Mo, 03.10. 10:00 1028 + 1,1
Mo, 03.10. 9:50 1028 keine Meldung
Mo, 03.10. 9:40 1028 keine Meldung
Mo, 03.10. 9:30 1028 + 0,8
Mo, 03.10. 9:20 1028 keine Meldung
Mo, 03.10. 9:10 1028 keine Meldung
Mo, 03.10. 9:00 1028 + 0,8
Mo, 03.10. 8:30 1028 + 0,9
Mo, 03.10. 8:00 1028 + 0,9
Mo, 03.10. 7:30 1027 + 0,6
Mo, 03.10. 7:00 1027 + 0,8
Ortszeit Schneehöhe (cm)
Mo, 03.10. 8:00 0
Mo, 03.10. 2:00 0
So, 02.10. 20:00 0
So, 02.10. 14:00 0
So, 02.10. 8:00 0
So, 02.10. 2:00 0
Sa, 01.10. 20:00 0
Sa, 01.10. 14:00 0
Ortszeit Schneehöhe (cm)
Mo, 03.10. 10:00 0
Mo, 03.10. 9:50 0
Mo, 03.10. 9:40 0
Mo, 03.10. 9:30 0
Mo, 03.10. 9:20 0
Mo, 03.10. 9:10 0
Mo, 03.10. 9:00 0
Mo, 03.10. 8:30 0
Mo, 03.10. 8:00 0
Mo, 03.10. 7:30 0
Mo, 03.10. 7:00 0
Link zu dieser Seite / Seite empfehlen

Das Wetter in ...